Steamboat, Nevada
Current Conditions -  °F | °C
As of 12:55 AM on Wednesday 28 Jan 2015 (Local Time) from KRNO Reporting Station
Few Clouds Few Clouds  
Wind Chill: 34°   Ceiling: Unl
Heat Index: 34°   Visibility: 10mi
Dew Point: 29°   Wind: 3mph
Humidity: 82%   Direction: 250°WSW
Pressure: 30.3"   Gusts: NA
Location:  39.3905°N, 119.807°W
Report Text: KRNO 280855Z 25003KT 10SM FEW110 01/M02 A3030 RMK AO2 SLP256 T00111017 51009
Loading
Personal Weather Stations






























Interactive Weather Map New forecast layout! Learn more

10-Day Weather Forecast

Advertisements
Track Severe Weather on mobile